Terminal Aerodrome Forecast
Issued by NWS

Current Version | Previous Version | Graphics & Text | Print | Product List | Glossary On
Versions: 1 2 3 4 5 6 7 8 9 10 11 12 13 14 15 16 17
000
FTUS41 KILN 270500 RRA
TAFLUK
TAF
KLUK 270545Z 2706/2806 00000KT 1SM BR SCT200
      TEMPO 2706/2709 1/2SM FG
     FM270900 00000KT 1/4SM FG BKN200
     FM271200 00000KT 2SM BR BKN200
     FM271300 31005KT P6SM BKN150
     FM271700 33006KT P6SM VCTS BKN050CB
     FM272200 02005KT P6SM BKN100
     FM280500 05005KT 5SM BR SCT050 BKN200=

USA.gov is the U.S. government's official web portal to all federal, state and local government web resources and services.